This is the latest recevied weather packets stored in our database for station/object SP3ZBZ-13. If no packets are shown the sender has not sent any weather packets the latest 10 day(s).
| Time | Temp. | Humidity | Pressure | Rain* | Wind** | Luminosity | Snow |
|---|---|---|---|---|---|---|---|
| 1777792528 | 20° C | 38% | 1010.7 hPa | - | - | 381 W/m² | - |
| 1777791628 | 18.89° C | 40% | 1010.8 hPa | - | - | 304 W/m² | - |
| 1777790728 | 18.89° C | 41% | 1010.8 hPa | - | - | 289 W/m² | - |
| 1777789823 | 17.22° C | 45% | 1010.8 hPa | - | - | 266 W/m² | - |
| 1777788922 | 16.67° C | 45% | 1010.9 hPa | - | - | 197 W/m² | - |
| 1777788021 | 15.56° C | 49% | 1010.9 hPa | - | - | 178 W/m² | - |
| 1777787120 | 14.44° C | 50% | 1011 hPa | - | - | 157 W/m² | - |
| 1777786219 | 14.44° C | 50% | 1011.1 hPa | - | - | 114 W/m² | - |
| 1777785319 | 14.44° C | 50% | 1011.1 hPa | - | - | 85 W/m² | - |
| 1777784418 | 14.44° C | 50% | 1011.1 hPa | - | - | 82 W/m² | - |
| 1777783516 | 13.89° C | 49% | 1011.2 hPa | - | - | 69 W/m² | - |
| 1777782615 | 13.33° C | 52% | 1011.2 hPa | - | - | 55 W/m² | - |
| 1777781715 | 12.78° C | 52% | 1011.1 hPa | - | - | 40 W/m² | - |
| 1777780813 | 12.78° C | 52% | 1011.1 hPa | - | - | 25 W/m² | - |
| 1777779912 | 12.78° C | 52% | 1011.2 hPa | - | - | 14 W/m² | - |
| 1777779012 | 12.78° C | 51% | 1011.2 hPa | - | - | 6 W/m² | - |
| 1777778111 | 13.33° C | 50% | 1011.1 hPa | - | - | 2 W/m² | - |
| 1777777210 | 13.33° C | 49% | 1011.1 hPa | - | - | - | - |
| 1777776309 | 13.89° C | 49% | 1011.2 hPa | - | - | - | - |
| 1777775408 | 13.89° C | 48% | 1011.2 hPa | - | - | - | - |
| 1777774507 | 13.33° C | 49% | 1011.3 hPa | - | - | - | - |
| 1777773606 | 13.33° C | 49% | 1011.3 hPa | - | - | - | - |
| 1777772706 | 13.89° C | 49% | 1011.3 hPa | - | - | - | - |
| 1777771805 | 13.89° C | 48% | 1011.3 hPa | - | - | - | - |
| 1777770903 | 13.89° C | 48% | 1011.4 hPa | - | - | - | - |
* Rain since midnight (hover to see other rain measurements)
** Current wind speed in m/s (hover to see current wind gust speed)